sensor_id;sensor_type;location;lat;lon;timestamp;P1;durP1;ratioP1;P2;durP2;ratioP2
78740;SDS011;68062;48.726;9.370;2023-02-23T00:00:11;15.83;;;11.67;;
78740;SDS011;68062;48.726;9.370;2023-02-23T00:02:47;17.60;;;12.00;;
78740;SDS011;68062;48.726;9.370;2023-02-23T00:05:14;17.17;;;12.90;;
78740;SDS011;68062;48.726;9.370;2023-02-23T00:07:42;17.60;;;12.37;;
78740;SDS011;68062;48.726;9.370;2023-02-23T00:10:10;19.27;;;13.07;;
78740;SDS011;68062;48.726;9.370;2023-02-23T00:12:37;16.67;;;12.27;;
78740;SDS011;68062;48.726;9.370;2023-02-23T00:15:05;18.30;;;12.17;;
78740;SDS011;68062;48.726;9.370;2023-02-23T00:17:32;13.50;;;10.03;;
78740;SDS011;68062;48.726;9.370;2023-02-23T00:20:02;16.50;;;11.93;;
78740;SDS011;68062;48.726;9.370;2023-02-23T00:22:33;19.13;;;11.57;;
78740;SDS011;68062;48.726;9.370;2023-02-23T00:25:00;18.97;;;13.70;;
78740;SDS011;68062;48.726;9.370;2023-02-23T00:27:31;15.07;;;11.00;;
78740;SDS011;68062;48.726;9.370;2023-02-23T00:29:57;18.73;;;12.53;;
78740;SDS011;68062;48.726;9.370;2023-02-23T00:32:24;15.77;;;10.60;;
78740;SDS011;68062;48.726;9.370;2023-02-23T00:34:50;15.03;;;11.83;;
78740;SDS011;68062;48.726;9.370;2023-02-23T00:37:19;15.43;;;11.67;;
78740;SDS011;68062;48.726;9.370;2023-02-23T00:39:47;19.90;;;12.97;;
78740;SDS011;68062;48.726;9.370;2023-02-23T00:42:13;19.30;;;11.80;;
78740;SDS011;68062;48.726;9.370;2023-02-23T00:44:40;19.10;;;12.70;;
78740;SDS011;68062;48.726;9.370;2023-02-23T00:47:07;16.57;;;12.50;;
78740;SDS011;68062;48.726;9.370;2023-02-23T00:49:33;14.97;;;11.07;;
78740;SDS011;68062;48.726;9.370;2023-02-23T00:52:00;16.60;;;12.07;;
78740;SDS011;68062;48.726;9.370;2023-02-23T00:54:29;16.53;;;10.80;;
78740;SDS011;68062;48.726;9.370;2023-02-23T00:56:55;17.80;;;11.37;;
78740;SDS011;68062;48.726;9.370;2023-02-23T00:59:22;14.03;;;11.40;;
78740;SDS011;68062;48.726;9.370;2023-02-23T01:01:48;15.00;;;10.20;;
78740;SDS011;68062;48.726;9.370;2023-02-23T01:04:16;16.13;;;11.60;;
78740;SDS011;68062;48.726;9.370;2023-02-23T01:06:43;17.83;;;12.20;;
78740;SDS011;68062;48.726;9.370;2023-02-23T01:09:11;14.43;;;11.30;;
78740;SDS011;68062;48.726;9.370;2023-02-23T01:11:42;16.67;;;12.00;;
78740;SDS011;68062;48.726;9.370;2023-02-23T01:14:10;15.97;;;11.43;;
78740;SDS011;68062;48.726;9.370;2023-02-23T01:16:37;20.40;;;12.07;;
78740;SDS011;68062;48.726;9.370;2023-02-23T01:19:03;12.90;;;11.90;;
78740;SDS011;68062;48.726;9.370;2023-02-23T01:21:31;17.03;;;11.67;;
78740;SDS011;68062;48.726;9.370;2023-02-23T01:23:59;18.93;;;12.10;;
78740;SDS011;68062;48.726;9.370;2023-02-23T01:26:26;16.00;;;11.50;;
78740;SDS011;68062;48.726;9.370;2023-02-23T01:28:56;18.37;;;11.50;;
78740;SDS011;68062;48.726;9.370;2023-02-23T01:31:25;16.83;;;11.40;;
78740;SDS011;68062;48.726;9.370;2023-02-23T01:33:53;20.50;;;12.27;;
78740;SDS011;68062;48.726;9.370;2023-02-23T01:36:20;16.70;;;12.53;;
78740;SDS011;68062;48.726;9.370;2023-02-23T01:38:47;22.53;;;12.43;;
78740;SDS011;68062;48.726;9.370;2023-02-23T01:41:14;16.57;;;12.63;;
78740;SDS011;68062;48.726;9.370;2023-02-23T01:43:53;16.13;;;12.77;;
78740;SDS011;68062;48.726;9.370;2023-02-23T01:46:21;14.33;;;11.93;;
78740;SDS011;68062;48.726;9.370;2023-02-23T01:48:48;16.00;;;12.67;;
78740;SDS011;68062;48.726;9.370;2023-02-23T01:51:16;17.53;;;11.83;;
78740;SDS011;68062;48.726;9.370;2023-02-23T01:53:47;19.33;;;12.23;;
78740;SDS011;68062;48.726;9.370;2023-02-23T01:56:22;18.30;;;11.80;;
78740;SDS011;68062;48.726;9.370;2023-02-23T01:58:51;20.97;;;11.90;;
78740;SDS011;68062;48.726;9.370;2023-02-23T02:01:22;19.70;;;13.30;;
78740;SDS011;68062;48.726;9.370;2023-02-23T02:03:50;15.30;;;12.80;;
78740;SDS011;68062;48.726;9.370;2023-02-23T02:06:20;20.27;;;12.53;;
78740;SDS011;68062;48.726;9.370;2023-02-23T02:08:52;17.37;;;13.70;;
78740;SDS011;68062;48.726;9.370;2023-02-23T02:11:22;16.17;;;12.30;;
78740;SDS011;68062;48.726;9.370;2023-02-23T02:13:55;17.20;;;12.67;;
78740;SDS011;68062;48.726;9.370;2023-02-23T02:19:28;17.00;;;11.53;;
78740;SDS011;68062;48.726;9.370;2023-02-23T02:22:39;16.13;;;10.77;;
78740;SDS011;68062;48.726;9.370;2023-02-23T02:25:35;14.83;;;11.93;;
78740;SDS011;68062;48.726;9.370;2023-02-23T02:31:34;20.33;;;12.67;;
78740;SDS011;68062;48.726;9.370;2023-02-23T02:34:24;18.20;;;11.10;;
78740;SDS011;68062;48.726;9.370;2023-02-23T02:37:23;14.63;;;11.80;;
78740;SDS011;68062;48.726;9.370;2023-02-23T02:40:03;17.80;;;13.07;;
78740;SDS011;68062;48.726;9.370;2023-02-23T02:42:54;17.27;;;11.40;;
78740;SDS011;68062;48.726;9.370;2023-02-23T02:45:26;17.80;;;11.47;;
78740;SDS011;68062;48.726;9.370;2023-02-23T02:47:57;17.97;;;11.23;;
78740;SDS011;68062;48.726;9.370;2023-02-23T02:50:35;19.30;;;12.03;;
78740;SDS011;68062;48.726;9.370;2023-02-23T02:53:08;19.17;;;13.23;;
78740;SDS011;68062;48.726;9.370;2023-02-23T02:55:38;20.27;;;12.80;;
78740;SDS011;68062;48.726;9.370;2023-02-23T02:58:08;17.13;;;11.80;;
78740;SDS011;68062;48.726;9.370;2023-02-23T03:00:38;17.47;;;12.60;;
78740;SDS011;68062;48.726;9.370;2023-02-23T03:03:27;19.87;;;12.57;;
78740;SDS011;68062;48.726;9.370;2023-02-23T03:06:12;15.67;;;12.70;;
78740;SDS011;68062;48.726;9.370;2023-02-23T03:09:00;19.97;;;11.63;;
78740;SDS011;68062;48.726;9.370;2023-02-23T03:11:52;19.87;;;12.50;;
78740;SDS011;68062;48.726;9.370;2023-02-23T03:14:47;20.97;;;12.87;;
78740;SDS011;68062;48.726;9.370;2023-02-23T03:17:43;23.13;;;12.90;;
78740;SDS011;68062;48.726;9.370;2023-02-23T03:20:34;23.33;;;13.33;;
78740;SDS011;68062;48.726;9.370;2023-02-23T03:23:25;20.97;;;12.30;;
78740;SDS011;68062;48.726;9.370;2023-02-23T03:26:20;17.30;;;11.67;;
78740;SDS011;68062;48.726;9.370;2023-02-23T03:29:10;18.17;;;13.20;;
78740;SDS011;68062;48.726;9.370;2023-02-23T03:32:00;16.23;;;11.87;;
78740;SDS011;68062;48.726;9.370;2023-02-23T03:34:52;17.90;;;11.83;;
78740;SDS011;68062;48.726;9.370;2023-02-23T03:37:41;21.10;;;12.60;;
78740;SDS011;68062;48.726;9.370;2023-02-23T03:40:31;15.80;;;11.63;;
78740;SDS011;68062;48.726;9.370;2023-02-23T03:43:21;17.00;;;11.83;;
78740;SDS011;68062;48.726;9.370;2023-02-23T03:46:10;19.00;;;13.70;;
78740;SDS011;68062;48.726;9.370;2023-02-23T03:48:56;19.83;;;13.20;;
78740;SDS011;68062;48.726;9.370;2023-02-23T03:51:45;21.00;;;12.93;;
78740;SDS011;68062;48.726;9.370;2023-02-23T03:54:32;14.87;;;12.43;;
78740;SDS011;68062;48.726;9.370;2023-02-23T03:57:19;16.97;;;12.00;;
78740;SDS011;68062;48.726;9.370;2023-02-23T04:00:12;16.43;;;12.53;;
78740;SDS011;68062;48.726;9.370;2023-02-23T04:03:02;16.73;;;12.23;;
78740;SDS011;68062;48.726;9.370;2023-02-23T04:05:50;20.17;;;12.60;;
78740;SDS011;68062;48.726;9.370;2023-02-23T04:08:37;16.07;;;12.20;;
78740;SDS011;68062;48.726;9.370;2023-02-23T04:11:26;15.00;;;12.10;;
78740;SDS011;68062;48.726;9.370;2023-02-23T04:14:14;18.50;;;13.50;;
78740;SDS011;68062;48.726;9.370;2023-02-23T04:16:44;21.87;;;11.10;;
78740;SDS011;68062;48.726;9.370;2023-02-23T04:19:11;14.97;;;11.90;;
78740;SDS011;68062;48.726;9.370;2023-02-23T04:21:37;21.57;;;13.90;;
78740;SDS011;68062;48.726;9.370;2023-02-23T04:24:04;20.70;;;13.17;;
78740;SDS011;68062;48.726;9.370;2023-02-23T04:26:30;21.27;;;13.17;;
78740;SDS011;68062;48.726;9.370;2023-02-23T04:28:57;20.80;;;14.13;;
78740;SDS011;68062;48.726;9.370;2023-02-23T04:31:23;17.63;;;13.13;;
78740;SDS011;68062;48.726;9.370;2023-02-23T04:33:52;20.33;;;14.70;;
78740;SDS011;68062;48.726;9.370;2023-02-23T04:36:18;24.00;;;14.37;;
78740;SDS011;68062;48.726;9.370;2023-02-23T04:38:45;18.47;;;12.30;;
78740;SDS011;68062;48.726;9.370;2023-02-23T04:41:11;19.73;;;13.27;;
78740;SDS011;68062;48.726;9.370;2023-02-23T04:43:37;18.13;;;13.00;;
78740;SDS011;68062;48.726;9.370;2023-02-23T04:46:04;21.60;;;13.10;;
78740;SDS011;68062;48.726;9.370;2023-02-23T04:48:31;12.90;;;11.07;;
78740;SDS011;68062;48.726;9.370;2023-02-23T04:50:59;16.97;;;12.60;;
78740;SDS011;68062;48.726;9.370;2023-02-23T04:53:25;19.70;;;12.90;;
78740;SDS011;68062;48.726;9.370;2023-02-23T04:55:52;21.33;;;13.20;;
78740;SDS011;68062;48.726;9.370;2023-02-23T04:58:18;20.43;;;12.63;;
78740;SDS011;68062;48.726;9.370;2023-02-23T05:00:45;19.20;;;13.77;;
78740;SDS011;68062;48.726;9.370;2023-02-23T05:03:11;15.53;;;11.97;;
78740;SDS011;68062;48.726;9.370;2023-02-23T05:05:38;17.33;;;14.30;;
78740;SDS011;68062;48.726;9.370;2023-02-23T05:08:06;16.83;;;11.90;;
78740;SDS011;68062;48.726;9.370;2023-02-23T05:10:32;19.40;;;12.27;;
78740;SDS011;68062;48.726;9.370;2023-02-23T05:12:59;22.70;;;14.23;;
78740;SDS011;68062;48.726;9.370;2023-02-23T05:15:26;19.73;;;14.03;;
78740;SDS011;68062;48.726;9.370;2023-02-23T05:17:52;17.80;;;13.37;;
78740;SDS011;68062;48.726;9.370;2023-02-23T05:20:19;24.83;;;12.30;;
78740;SDS011;68062;48.726;9.370;2023-02-23T05:22:46;16.17;;;13.37;;
78740;SDS011;68062;48.726;9.370;2023-02-23T05:25:14;18.73;;;13.33;;
78740;SDS011;68062;48.726;9.370;2023-02-23T05:27:41;18.90;;;13.60;;
78740;SDS011;68062;48.726;9.370;2023-02-23T05:30:08;19.13;;;14.47;;
78740;SDS011;68062;48.726;9.370;2023-02-23T05:32:35;20.17;;;13.70;;
78740;SDS011;68062;48.726;9.370;2023-02-23T05:35:02;15.10;;;12.77;;
78740;SDS011;68062;48.726;9.370;2023-02-23T05:37:28;18.43;;;13.17;;
78740;SDS011;68062;48.726;9.370;2023-02-23T05:39:55;19.20;;;13.50;;
78740;SDS011;68062;48.726;9.370;2023-02-23T05:42:23;20.97;;;13.40;;
78740;SDS011;68062;48.726;9.370;2023-02-23T05:44:49;19.73;;;13.30;;
78740;SDS011;68062;48.726;9.370;2023-02-23T05:47:16;17.50;;;13.73;;
78740;SDS011;68062;48.726;9.370;2023-02-23T05:49:42;24.17;;;14.27;;
78740;SDS011;68062;48.726;9.370;2023-02-23T05:52:10;22.20;;;12.97;;
78740;SDS011;68062;48.726;9.370;2023-02-23T05:54:36;19.77;;;12.97;;
78740;SDS011;68062;48.726;9.370;2023-02-23T05:57:03;20.23;;;14.57;;
78740;SDS011;68062;48.726;9.370;2023-02-23T05:59:30;22.63;;;14.50;;
78740;SDS011;68062;48.726;9.370;2023-02-23T06:01:57;18.70;;;14.60;;
78740;SDS011;68062;48.726;9.370;2023-02-23T06:04:23;18.20;;;13.60;;
78740;SDS011;68062;48.726;9.370;2023-02-23T06:06:50;20.50;;;14.00;;
78740;SDS011;68062;48.726;9.370;2023-02-23T06:09:17;17.93;;;13.80;;
78740;SDS011;68062;48.726;9.370;2023-02-23T06:11:43;23.90;;;13.27;;
78740;SDS011;68062;48.726;9.370;2023-02-23T06:14:10;21.57;;;14.33;;
78740;SDS011;68062;48.726;9.370;2023-02-23T06:16:37;19.27;;;14.03;;
78740;SDS011;68062;48.726;9.370;2023-02-23T06:19:04;20.10;;;13.83;;
78740;SDS011;68062;48.726;9.370;2023-02-23T06:21:31;21.67;;;14.77;;
78740;SDS011;68062;48.726;9.370;2023-02-23T06:23:58;20.03;;;13.83;;
78740;SDS011;68062;48.726;9.370;2023-02-23T06:26:25;22.70;;;15.17;;
78740;SDS011;68062;48.726;9.370;2023-02-23T06:28:51;19.33;;;14.10;;
78740;SDS011;68062;48.726;9.370;2023-02-23T06:31:17;22.20;;;13.53;;
78740;SDS011;68062;48.726;9.370;2023-02-23T06:33:45;20.17;;;14.37;;
78740;SDS011;68062;48.726;9.370;2023-02-23T06:36:12;20.97;;;13.37;;
78740;SDS011;68062;48.726;9.370;2023-02-23T06:38:39;20.03;;;14.17;;
78740;SDS011;68062;48.726;9.370;2023-02-23T06:41:06;19.17;;;13.30;;
78740;SDS011;68062;48.726;9.370;2023-02-23T06:43:33;16.97;;;12.00;;
78740;SDS011;68062;48.726;9.370;2023-02-23T06:46:00;20.00;;;13.90;;
78740;SDS011;68062;48.726;9.370;2023-02-23T06:48:27;18.00;;;13.80;;
78740;SDS011;68062;48.726;9.370;2023-02-23T06:50:55;17.83;;;14.03;;
78740;SDS011;68062;48.726;9.370;2023-02-23T06:53:23;20.37;;;13.63;;
78740;SDS011;68062;48.726;9.370;2023-02-23T06:55:49;15.87;;;13.10;;
78740;SDS011;68062;48.726;9.370;2023-02-23T06:58:16;21.43;;;14.23;;
78740;SDS011;68062;48.726;9.370;2023-02-23T07:00:42;20.00;;;13.67;;
78740;SDS011;68062;48.726;9.370;2023-02-23T07:03:09;24.30;;;14.27;;
78740;SDS011;68062;48.726;9.370;2023-02-23T07:05:36;21.83;;;13.70;;
78740;SDS011;68062;48.726;9.370;2023-02-23T07:08:04;20.87;;;13.40;;
78740;SDS011;68062;48.726;9.370;2023-02-23T07:10:31;20.23;;;13.43;;
78740;SDS011;68062;48.726;9.370;2023-02-23T07:12:59;18.90;;;13.40;;
78740;SDS011;68062;48.726;9.370;2023-02-23T07:15:25;18.63;;;13.10;;
78740;SDS011;68062;48.726;9.370;2023-02-23T07:17:52;21.00;;;14.30;;
78740;SDS011;68062;48.726;9.370;2023-02-23T07:20:18;23.27;;;14.43;;
78740;SDS011;68062;48.726;9.370;2023-02-23T07:22:45;20.60;;;13.67;;
78740;SDS011;68062;48.726;9.370;2023-02-23T07:25:13;21.50;;;14.10;;
78740;SDS011;68062;48.726;9.370;2023-02-23T07:27:39;20.43;;;15.10;;
78740;SDS011;68062;48.726;9.370;2023-02-23T07:30:07;17.83;;;13.43;;
78740;SDS011;68062;48.726;9.370;2023-02-23T07:32:34;20.77;;;14.23;;
78740;SDS011;68062;48.726;9.370;2023-02-23T07:35:01;21.63;;;15.10;;
78740;SDS011;68062;48.726;9.370;2023-02-23T07:37:28;26.67;;;15.90;;
78740;SDS011;68062;48.726;9.370;2023-02-23T07:39:54;21.67;;;15.27;;
78740;SDS011;68062;48.726;9.370;2023-02-23T07:42:22;22.97;;;15.60;;
78740;SDS011;68062;48.726;9.370;2023-02-23T07:44:48;20.57;;;15.20;;
78740;SDS011;68062;48.726;9.370;2023-02-23T07:47:15;23.47;;;16.33;;
78740;SDS011;68062;48.726;9.370;2023-02-23T07:49:41;22.60;;;15.80;;
78740;SDS011;68062;48.726;9.370;2023-02-23T07:52:08;26.80;;;16.83;;
78740;SDS011;68062;48.726;9.370;2023-02-23T07:54:34;21.93;;;15.27;;
78740;SDS011;68062;48.726;9.370;2023-02-23T07:57:01;26.40;;;17.77;;
78740;SDS011;68062;48.726;9.370;2023-02-23T07:59:28;25.27;;;16.30;;
78740;SDS011;68062;48.726;9.370;2023-02-23T08:01:56;25.00;;;15.57;;
78740;SDS011;68062;48.726;9.370;2023-02-23T08:04:22;26.60;;;16.37;;
78740;SDS011;68062;48.726;9.370;2023-02-23T08:06:48;24.10;;;17.40;;
78740;SDS011;68062;48.726;9.370;2023-02-23T08:09:15;26.33;;;17.67;;
78740;SDS011;68062;48.726;9.370;2023-02-23T08:11:41;21.80;;;16.07;;
78740;SDS011;68062;48.726;9.370;2023-02-23T08:14:09;26.03;;;16.57;;
78740;SDS011;68062;48.726;9.370;2023-02-23T08:16:38;24.17;;;15.83;;
78740;SDS011;68062;48.726;9.370;2023-02-23T08:19:04;28.63;;;16.17;;
78740;SDS011;68062;48.726;9.370;2023-02-23T08:21:31;24.30;;;17.47;;
78740;SDS011;68062;48.726;9.370;2023-02-23T08:23:57;20.03;;;15.57;;
78740;SDS011;68062;48.726;9.370;2023-02-23T08:26:24;26.13;;;18.13;;
78740;SDS011;68062;48.726;9.370;2023-02-23T08:28:51;26.70;;;17.57;;
78740;SDS011;68062;48.726;9.370;2023-02-23T08:31:17;27.77;;;17.07;;
78740;SDS011;68062;48.726;9.370;2023-02-23T08:33:48;22.50;;;16.27;;
78740;SDS011;68062;48.726;9.370;2023-02-23T08:36:15;22.30;;;14.90;;
78740;SDS011;68062;48.726;9.370;2023-02-23T08:38:41;21.77;;;15.93;;
78740;SDS011;68062;48.726;9.370;2023-02-23T08:41:08;23.23;;;16.50;;
78740;SDS011;68062;48.726;9.370;2023-02-23T08:43:34;23.80;;;16.53;;
78740;SDS011;68062;48.726;9.370;2023-02-23T08:46:03;25.27;;;15.97;;
78740;SDS011;68062;48.726;9.370;2023-02-23T08:48:30;24.60;;;16.70;;
78740;SDS011;68062;48.726;9.370;2023-02-23T08:50:58;26.83;;;16.57;;
78740;SDS011;68062;48.726;9.370;2023-02-23T08:53:25;24.57;;;16.47;;
78740;SDS011;68062;48.726;9.370;2023-02-23T08:55:54;26.87;;;17.37;;
78740;SDS011;68062;48.726;9.370;2023-02-23T08:58:22;24.60;;;16.33;;
78740;SDS011;68062;48.726;9.370;2023-02-23T09:00:48;20.33;;;15.40;;
78740;SDS011;68062;48.726;9.370;2023-02-23T09:03:15;23.33;;;15.60;;
78740;SDS011;68062;48.726;9.370;2023-02-23T09:05:41;27.60;;;16.70;;
78740;SDS011;68062;48.726;9.370;2023-02-23T09:08:09;22.73;;;16.17;;
78740;SDS011;68062;48.726;9.370;2023-02-23T09:10:37;22.70;;;16.27;;
78740;SDS011;68062;48.726;9.370;2023-02-23T09:13:03;20.73;;;15.50;;
78740;SDS011;68062;48.726;9.370;2023-02-23T09:15:30;24.10;;;15.83;;
78740;SDS011;68062;48.726;9.370;2023-02-23T09:17:58;25.87;;;16.33;;
78740;SDS011;68062;48.726;9.370;2023-02-23T09:20:26;23.43;;;15.67;;
78740;SDS011;68062;48.726;9.370;2023-02-23T09:22:52;25.83;;;16.77;;
78740;SDS011;68062;48.726;9.370;2023-02-23T09:25:20;22.10;;;16.13;;
78740;SDS011;68062;48.726;9.370;2023-02-23T09:27:47;22.80;;;16.03;;
78740;SDS011;68062;48.726;9.370;2023-02-23T09:30:15;20.73;;;16.27;;
78740;SDS011;68062;48.726;9.370;2023-02-23T09:32:44;26.50;;;16.53;;
78740;SDS011;68062;48.726;9.370;2023-02-23T09:35:11;23.87;;;16.00;;
78740;SDS011;68062;48.726;9.370;2023-02-23T09:37:38;21.90;;;15.30;;
78740;SDS011;68062;48.726;9.370;2023-02-23T09:40:05;23.47;;;17.23;;
78740;SDS011;68062;48.726;9.370;2023-02-23T09:42:37;23.23;;;16.90;;
78740;SDS011;68062;48.726;9.370;2023-02-23T09:45:16;25.63;;;16.97;;
78740;SDS011;68062;48.726;9.370;2023-02-23T09:47:51;25.73;;;16.73;;
78740;SDS011;68062;48.726;9.370;2023-02-23T09:50:29;23.90;;;16.03;;
78740;SDS011;68062;48.726;9.370;2023-02-23T09:52:57;22.10;;;14.83;;
78740;SDS011;68062;48.726;9.370;2023-02-23T09:55:28;24.30;;;15.50;;
78740;SDS011;68062;48.726;9.370;2023-02-23T09:57:57;18.80;;;15.67;;
78740;SDS011;68062;48.726;9.370;2023-02-23T10:00:33;26.50;;;15.03;;
78740;SDS011;68062;48.726;9.370;2023-02-23T10:03:10;22.57;;;15.87;;
78740;SDS011;68062;48.726;9.370;2023-02-23T10:05:44;18.80;;;16.50;;
78740;SDS011;68062;48.726;9.370;2023-02-23T10:08:17;21.83;;;15.30;;
78740;SDS011;68062;48.726;9.370;2023-02-23T10:10:50;21.73;;;14.60;;
78740;SDS011;68062;48.726;9.370;2023-02-23T10:13:27;19.63;;;14.10;;
78740;SDS011;68062;48.726;9.370;2023-02-23T10:16:06;19.97;;;14.10;;
78740;SDS011;68062;48.726;9.370;2023-02-23T10:18:39;19.63;;;13.47;;
78740;SDS011;68062;48.726;9.370;2023-02-23T10:21:14;12.73;;;11.47;;
78740;SDS011;68062;48.726;9.370;2023-02-23T10:23:47;19.77;;;13.33;;
78740;SDS011;68062;48.726;9.370;2023-02-23T10:26:17;18.77;;;15.07;;
78740;SDS011;68062;48.726;9.370;2023-02-23T10:28:48;16.83;;;11.60;;
78740;SDS011;68062;48.726;9.370;2023-02-23T10:31:20;16.40;;;12.43;;
78740;SDS011;68062;48.726;9.370;2023-02-23T10:33:53;17.83;;;11.60;;
78740;SDS011;68062;48.726;9.370;2023-02-23T10:36:27;19.37;;;11.60;;
78740;SDS011;68062;48.726;9.370;2023-02-23T10:38:59;17.20;;;9.53;;
78740;SDS011;68062;48.726;9.370;2023-02-23T10:41:26;16.03;;;10.07;;
78740;SDS011;68062;48.726;9.370;2023-02-23T10:43:54;14.33;;;10.23;;
78740;SDS011;68062;48.726;9.370;2023-02-23T10:46:21;14.23;;;9.17;;
78740;SDS011;68062;48.726;9.370;2023-02-23T10:49:01;10.93;;;9.17;;
78740;SDS011;68062;48.726;9.370;2023-02-23T10:51:29;16.00;;;10.03;;
78740;SDS011;68062;48.726;9.370;2023-02-23T10:54:12;14.57;;;8.90;;
78740;SDS011;68062;48.726;9.370;2023-02-23T10:57:00;14.37;;;8.77;;
78740;SDS011;68062;48.726;9.370;2023-02-23T10:59:30;10.33;;;7.50;;
78740;SDS011;68062;48.726;9.370;2023-02-23T11:01:57;10.27;;;7.37;;
78740;SDS011;68062;48.726;9.370;2023-02-23T11:04:24;10.50;;;8.50;;
78740;SDS011;68062;48.726;9.370;2023-02-23T11:07:04;13.90;;;8.47;;
78740;SDS011;68062;48.726;9.370;2023-02-23T11:09:32;10.80;;;7.70;;
78740;SDS011;68062;48.726;9.370;2023-02-23T11:12:00;12.57;;;8.10;;
78740;SDS011;68062;48.726;9.370;2023-02-23T11:14:28;9.70;;;7.70;;
78740;SDS011;68062;48.726;9.370;2023-02-23T11:16:58;11.37;;;7.20;;
78740;SDS011;68062;48.726;9.370;2023-02-23T11:19:27;9.83;;;7.10;;
78740;SDS011;68062;48.726;9.370;2023-02-23T11:21:58;9.60;;;7.17;;
78740;SDS011;68062;48.726;9.370;2023-02-23T11:24:25;7.43;;;5.83;;
78740;SDS011;68062;48.726;9.370;2023-02-23T11:26:55;9.47;;;6.97;;
78740;SDS011;68062;48.726;9.370;2023-02-23T11:29:24;8.83;;;6.70;;
78740;SDS011;68062;48.726;9.370;2023-02-23T11:32:01;9.23;;;7.70;;
78740;SDS011;68062;48.726;9.370;2023-02-23T11:34:33;8.97;;;6.50;;
78740;SDS011;68062;48.726;9.370;2023-02-23T11:37:05;8.63;;;5.40;;
78740;SDS011;68062;48.726;9.370;2023-02-23T11:39:33;8.43;;;5.93;;
78740;SDS011;68062;48.726;9.370;2023-02-23T11:42:03;13.77;;;6.67;;
78740;SDS011;68062;48.726;9.370;2023-02-23T11:44:38;8.40;;;6.50;;
78740;SDS011;68062;48.726;9.370;2023-02-23T11:47:11;11.40;;;7.17;;
78740;SDS011;68062;48.726;9.370;2023-02-23T11:49:42;8.27;;;6.30;;
78740;SDS011;68062;48.726;9.370;2023-02-23T11:52:11;7.53;;;5.27;;
78740;SDS011;68062;48.726;9.370;2023-02-23T11:54:40;7.20;;;5.30;;
78740;SDS011;68062;48.726;9.370;2023-02-23T11:57:18;6.23;;;4.60;;
78740;SDS011;68062;48.726;9.370;2023-02-23T11:59:46;8.03;;;5.67;;
78740;SDS011;68062;48.726;9.370;2023-02-23T12:02:19;7.40;;;5.50;;
78740;SDS011;68062;48.726;9.370;2023-02-23T12:04:49;7.63;;;6.10;;
78740;SDS011;68062;48.726;9.370;2023-02-23T12:10:06;8.63;;;5.50;;
78740;SDS011;68062;48.726;9.370;2023-02-23T12:12:42;9.03;;;5.40;;
78740;SDS011;68062;48.726;9.370;2023-02-23T12:15:19;8.60;;;4.10;;
78740;SDS011;68062;48.726;9.370;2023-02-23T12:17:56;6.50;;;4.17;;
78740;SDS011;68062;48.726;9.370;2023-02-23T12:20:26;4.60;;;3.23;;
78740;SDS011;68062;48.726;9.370;2023-02-23T12:22:57;6.40;;;3.80;;
78740;SDS011;68062;48.726;9.370;2023-02-23T12:25:28;5.70;;;3.83;;
78740;SDS011;68062;48.726;9.370;2023-02-23T12:28:00;9.50;;;3.97;;
78740;SDS011;68062;48.726;9.370;2023-02-23T12:30:38;4.57;;;3.50;;
78740;SDS011;68062;48.726;9.370;2023-02-23T12:33:10;7.00;;;3.87;;
78740;SDS011;68062;48.726;9.370;2023-02-23T12:35:42;5.43;;;3.00;;
78740;SDS011;68062;48.726;9.370;2023-02-23T12:38:16;3.40;;;2.73;;
78740;SDS011;68062;48.726;9.370;2023-02-23T12:40:52;5.87;;;2.83;;
78740;SDS011;68062;48.726;9.370;2023-02-23T12:43:25;4.90;;;3.90;;
78740;SDS011;68062;48.726;9.370;2023-02-23T12:46:02;5.17;;;2.93;;
78740;SDS011;68062;48.726;9.370;2023-02-23T12:48:36;5.97;;;3.00;;
78740;SDS011;68062;48.726;9.370;2023-02-23T12:51:13;4.57;;;3.30;;
78740;SDS011;68062;48.726;9.370;2023-02-23T12:53:46;5.63;;;3.27;;
78740;SDS011;68062;48.726;9.370;2023-02-23T12:56:16;5.00;;;2.90;;
78740;SDS011;68062;48.726;9.370;2023-02-23T12:58:53;4.70;;;2.30;;
78740;SDS011;68062;48.726;9.370;2023-02-23T13:01:30;5.10;;;2.80;;
78740;SDS011;68062;48.726;9.370;2023-02-23T13:04:08;3.53;;;2.33;;
78740;SDS011;68062;48.726;9.370;2023-02-23T13:06:52;1.90;;;1.90;;
78740;SDS011;68062;48.726;9.370;2023-02-23T13:09:27;3.80;;;2.63;;
78740;SDS011;68062;48.726;9.370;2023-02-23T13:12:10;3.83;;;2.67;;
78740;SDS011;68062;48.726;9.370;2023-02-23T13:14:43;4.53;;;2.70;;
78740;SDS011;68062;48.726;9.370;2023-02-23T13:17:23;4.57;;;2.60;;
78740;SDS011;68062;48.726;9.370;2023-02-23T13:19:58;5.00;;;2.33;;
78740;SDS011;68062;48.726;9.370;2023-02-23T13:22:30;4.70;;;2.07;;
78740;SDS011;68062;48.726;9.370;2023-02-23T13:25:02;5.73;;;2.47;;
78740;SDS011;68062;48.726;9.370;2023-02-23T13:27:36;4.13;;;2.70;;
78740;SDS011;68062;48.726;9.370;2023-02-23T13:30:08;5.40;;;3.10;;
78740;SDS011;68062;48.726;9.370;2023-02-23T13:32:37;4.97;;;2.73;;
78740;SDS011;68062;48.726;9.370;2023-02-23T13:35:06;6.40;;;2.90;;
78740;SDS011;68062;48.726;9.370;2023-02-23T13:37:39;4.50;;;3.17;;
78740;SDS011;68062;48.726;9.370;2023-02-23T13:40:18;9.30;;;3.60;;
78740;SDS011;68062;48.726;9.370;2023-02-23T13:42:54;4.80;;;3.07;;
78740;SDS011;68062;48.726;9.370;2023-02-23T13:45:39;6.13;;;2.83;;
78740;SDS011;68062;48.726;9.370;2023-02-23T13:48:15;8.27;;;3.50;;
78740;SDS011;68062;48.726;9.370;2023-02-23T13:50:55;4.23;;;2.50;;
78740;SDS011;68062;48.726;9.370;2023-02-23T13:53:38;7.57;;;3.10;;
78740;SDS011;68062;48.726;9.370;2023-02-23T13:56:07;5.10;;;2.83;;
78740;SDS011;68062;48.726;9.370;2023-02-23T13:58:35;4.73;;;2.80;;
78740;SDS011;68062;48.726;9.370;2023-02-23T14:01:03;4.17;;;2.73;;
78740;SDS011;68062;48.726;9.370;2023-02-23T14:03:35;6.13;;;3.30;;
78740;SDS011;68062;48.726;9.370;2023-02-23T14:06:10;7.83;;;3.90;;
78740;SDS011;68062;48.726;9.370;2023-02-23T14:08:40;4.70;;;3.50;;
78740;SDS011;68062;48.726;9.370;2023-02-23T14:11:09;6.40;;;3.00;;
78740;SDS011;68062;48.726;9.370;2023-02-23T14:13:38;2.90;;;2.40;;
78740;SDS011;68062;48.726;9.370;2023-02-23T14:16:07;5.10;;;2.67;;
78740;SDS011;68062;48.726;9.370;2023-02-23T14:18:50;9.00;;;3.73;;
78740;SDS011;68062;48.726;9.370;2023-02-23T14:21:27;3.20;;;2.40;;
78740;SDS011;68062;48.726;9.370;2023-02-23T14:26:41;4.10;;;3.07;;
78740;SDS011;68062;48.726;9.370;2023-02-23T14:29:16;2.60;;;2.20;;
78740;SDS011;68062;48.726;9.370;2023-02-23T14:31:52;3.57;;;2.63;;
78740;SDS011;68062;48.726;9.370;2023-02-23T14:34:20;8.13;;;2.50;;
78740;SDS011;68062;48.726;9.370;2023-02-23T14:36:49;3.23;;;2.70;;
78740;SDS011;68062;48.726;9.370;2023-02-23T14:39:21;6.20;;;2.30;;
78740;SDS011;68062;48.726;9.370;2023-02-23T14:41:51;3.40;;;2.43;;
78740;SDS011;68062;48.726;9.370;2023-02-23T14:44:20;8.27;;;3.07;;
78740;SDS011;68062;48.726;9.370;2023-02-23T14:46:55;5.33;;;2.90;;
78740;SDS011;68062;48.726;9.370;2023-02-23T14:49:27;5.00;;;3.77;;
78740;SDS011;68062;48.726;9.370;2023-02-23T14:52:03;4.73;;;2.90;;
78740;SDS011;68062;48.726;9.370;2023-02-23T14:54:33;4.17;;;3.00;;
78740;SDS011;68062;48.726;9.370;2023-02-23T14:57:02;6.87;;;2.60;;
78740;SDS011;68062;48.726;9.370;2023-02-23T14:59:35;6.30;;;2.73;;
78740;SDS011;68062;48.726;9.370;2023-02-23T15:02:06;4.80;;;2.90;;
78740;SDS011;68062;48.726;9.370;2023-02-23T15:04:34;5.37;;;3.50;;